sensor_id;sensor_type;location;lat;lon;timestamp;pressure;altitude;pressure_sealevel;temperature;humidity
30614;BME280;17381;51.690;5.270;2023-04-24T00:02:20;99938.69;;;9.67;93.65
30614;BME280;17381;51.690;5.270;2023-04-24T00:04:57;99940.41;;;9.68;93.81
30614;BME280;17381;51.690;5.270;2023-04-24T01:28:33;99953.53;;;9.68;93.55
30614;BME280;17381;51.690;5.270;2023-04-24T01:31:15;99949.06;;;9.70;93.44
30614;BME280;17381;51.690;5.270;2023-04-24T01:33:54;99951.63;;;9.72;93.08
30614;BME280;17381;51.690;5.270;2023-04-24T01:36:22;99934.53;;;9.61;93.00
30614;BME280;17381;51.690;5.270;2023-04-24T01:39:14;99950.53;;;9.77;93.12
30614;BME280;17381;51.690;5.270;2023-04-24T01:42:22;99952.28;;;9.78;92.79
30614;BME280;17381;51.690;5.270;2023-04-24T02:07:42;99945.31;;;9.77;92.61
30614;BME280;17381;51.690;5.270;2023-04-24T02:17:51;99923.72;;;9.46;92.53
30614;BME280;17381;51.690;5.270;2023-04-24T02:25:14;99953.44;;;9.46;92.92
30614;BME280;17381;51.690;5.270;2023-04-24T02:28:40;99963.06;;;9.46;93.18
30614;BME280;17381;51.690;5.270;2023-04-24T02:31:57;99959.88;;;9.37;93.63
30614;BME280;17381;51.690;5.270;2023-04-24T02:34:37;99923.75;;;9.21;93.72
30614;BME280;17381;51.690;5.270;2023-04-24T02:37:35;99919.47;;;9.18;93.64
30614;BME280;17381;51.690;5.270;2023-04-24T02:53:06;99940.66;;;9.12;94.50
30614;BME280;17381;51.690;5.270;2023-04-24T02:55:46;99944.09;;;9.14;94.16
30614;BME280;17381;51.690;5.270;2023-04-24T02:58:39;99940.28;;;9.23;93.93
30614;BME280;17381;51.690;5.270;2023-04-24T03:01:44;99940.25;;;9.24;93.71
30614;BME280;17381;51.690;5.270;2023-04-24T03:08:13;99939.69;;;9.14;94.07
30614;BME280;17381;51.690;5.270;2023-04-24T03:42:17;99932.91;;;8.82;94.01
30614;BME280;17381;51.690;5.270;2023-04-24T04:40:24;99967.28;;;8.73;97.30
30614;BME280;17381;51.690;5.270;2023-04-24T04:43:00;99970.66;;;8.77;97.27
30614;BME280;17381;51.690;5.270;2023-04-24T04:45:47;99960.31;;;8.72;97.75
30614;BME280;17381;51.690;5.270;2023-04-24T04:48:40;99972.28;;;8.81;97.67
30614;BME280;17381;51.690;5.270;2023-04-24T05:23:00;100004.97;;;8.69;98.91
30614;BME280;17381;51.690;5.270;2023-04-24T05:28:23;100009.25;;;8.71;99.17
30614;BME280;17381;51.690;5.270;2023-04-24T05:31:15;100022.81;;;8.84;99.04
30614;BME280;17381;51.690;5.270;2023-04-24T05:33:51;100023.66;;;8.85;99.33
30614;BME280;17381;51.690;5.270;2023-04-24T05:40:24;100046.41;;;8.84;99.59
30614;BME280;17381;51.690;5.270;2023-04-24T05:43:33;100037.81;;;8.79;99.81
30614;BME280;17381;51.690;5.270;2023-04-24T05:46:10;100059.28;;;8.90;99.43
30614;BME280;17381;51.690;5.270;2023-04-24T05:49:01;100067.09;;;8.93;99.33
30614;BME280;17381;51.690;5.270;2023-04-24T05:51:37;100062.69;;;8.94;99.39
30614;BME280;17381;51.690;5.270;2023-04-24T06:09:43;100098.53;;;8.93;100.00
30614;BME280;17381;51.690;5.270;2023-04-24T06:12:16;100114.91;;;9.00;100.00
30614;BME280;17381;51.690;5.270;2023-04-24T06:18:45;100123.47;;;9.05;100.00
30614;BME280;17381;51.690;5.270;2023-04-24T06:21:13;100109.78;;;8.95;99.70
30614;BME280;17381;51.690;5.270;2023-04-24T06:39:03;100162.97;;;8.71;99.69
30614;BME280;17381;51.690;5.270;2023-04-24T06:41:35;100191.59;;;8.77;99.78
30614;BME280;17381;51.690;5.270;2023-04-24T06:44:03;100187.47;;;8.68;99.45
30614;BME280;17381;51.690;5.270;2023-04-24T06:46:32;100202.16;;;8.74;99.43
30614;BME280;17381;51.690;5.270;2023-04-24T06:49:00;100208.47;;;8.67;99.25
30614;BME280;17381;51.690;5.270;2023-04-24T06:51:29;100205.19;;;8.60;99.47
30614;BME280;17381;51.690;5.270;2023-04-24T06:54:06;100209.19;;;8.41;98.80
30614;BME280;17381;51.690;5.270;2023-04-24T07:39:43;100278.19;;;7.67;100.00
30614;BME280;17381;51.690;5.270;2023-04-24T07:42:10;100366.81;;;8.19;100.00
30614;BME280;17381;51.690;5.270;2023-04-24T07:45:02;100364.22;;;8.18;100.00
30614;BME280;17381;51.690;5.270;2023-04-24T08:13:38;100445.28;;;8.21;100.00
30614;BME280;17381;51.690;5.270;2023-04-24T08:20:15;100412.69;;;7.97;100.00
30614;BME280;17381;51.690;5.270;2023-04-24T08:22:50;100401.59;;;7.85;99.82
30614;BME280;17381;51.690;5.270;2023-04-24T08:25:22;100411.06;;;7.93;99.18
30614;BME280;17381;51.690;5.270;2023-04-24T08:27:52;100385.41;;;7.67;98.80
30614;BME280;17381;51.690;5.270;2023-04-24T08:30:50;100482.84;;;8.20;98.51
30614;BME280;17381;51.690;5.270;2023-04-24T08:33:24;100484.63;;;8.18;98.95
30614;BME280;17381;51.690;5.270;2023-04-24T08:35:56;100474.31;;;8.12;99.20
30614;BME280;17381;51.690;5.270;2023-04-24T09:40:47;100599.91;;;8.97;83.92
30614;BME280;17381;51.690;5.270;2023-04-24T10:14:41;100643.53;;;9.00;79.23
30614;BME280;17381;51.690;5.270;2023-04-24T10:21:24;100657.00;;;8.83;79.78
30614;BME280;17381;51.690;5.270;2023-04-24T11:06:29;100697.56;;;9.80;75.63
30614;BME280;17381;51.690;5.270;2023-04-24T11:12:08;100687.31;;;10.05;75.44
30614;BME280;17381;51.690;5.270;2023-04-24T11:17:38;100694.06;;;10.15;71.30
30614;BME280;17381;51.690;5.270;2023-04-24T11:20:15;100660.81;;;9.80;70.59
30614;BME280;17381;51.690;5.270;2023-04-24T11:22:54;100702.59;;;9.89;70.73
30614;BME280;17381;51.690;5.270;2023-04-24T11:25:30;100665.91;;;9.52;71.68
30614;BME280;17381;51.690;5.270;2023-04-24T11:28:34;100708.34;;;9.69;71.94
30614;BME280;17381;51.690;5.270;2023-04-24T11:31:40;100724.94;;;9.70;71.60
30614;BME280;17381;51.690;5.270;2023-04-24T11:34:25;100715.94;;;9.44;71.57
30614;BME280;17381;51.690;5.270;2023-04-24T11:37:19;100725.38;;;9.51;72.10
30614;BME280;17381;51.690;5.270;2023-04-24T11:39:52;100742.22;;;9.43;72.37
30614;BME280;17381;51.690;5.270;2023-04-24T11:42:28;100737.09;;;9.36;72.74
30614;BME280;17381;51.690;5.270;2023-04-24T11:44:59;100746.75;;;9.34;73.34
30614;BME280;17381;51.690;5.270;2023-04-24T11:47:31;100751.25;;;9.29;73.42
30614;BME280;17381;51.690;5.270;2023-04-24T11:50:23;100758.00;;;9.39;74.07
30614;BME280;17381;51.690;5.270;2023-04-24T11:53:07;100762.81;;;9.59;74.35
30614;BME280;17381;51.690;5.270;2023-04-24T11:55:54;100742.47;;;9.68;73.80
30614;BME280;17381;51.690;5.270;2023-04-24T11:58:21;100687.72;;;9.54;73.97
30614;BME280;17381;51.690;5.270;2023-04-24T12:01:11;100703.13;;;9.68;73.31
30614;BME280;17381;51.690;5.270;2023-04-24T12:03:58;100753.91;;;10.02;72.83
30614;BME280;17381;51.690;5.270;2023-04-24T12:07:11;100749.28;;;10.12;73.43
30614;BME280;17381;51.690;5.270;2023-04-24T12:10:03;100755.19;;;10.20;72.93
30614;BME280;17381;51.690;5.270;2023-04-24T12:12:45;100754.38;;;10.18;72.63
30614;BME280;17381;51.690;5.270;2023-04-24T12:15:11;100762.06;;;10.28;70.86
30614;BME280;17381;51.690;5.270;2023-04-24T12:17:41;100768.22;;;10.25;70.78
30614;BME280;17381;51.690;5.270;2023-04-24T12:20:08;100775.59;;;10.09;71.31
30614;BME280;17381;51.690;5.270;2023-04-24T12:26:07;100788.78;;;9.70;74.49
30614;BME280;17381;51.690;5.270;2023-04-24T12:32:43;100806.81;;;9.47;75.42
30614;BME280;17381;51.690;5.270;2023-04-24T12:39:13;100811.81;;;9.17;76.89
30614;BME280;17381;51.690;5.270;2023-04-24T12:53:30;100828.66;;;10.23;80.59
30614;BME280;17381;51.690;5.270;2023-04-24T12:55:56;100781.03;;;10.39;78.68
30614;BME280;17381;51.690;5.270;2023-04-24T12:58:55;100822.06;;;11.08;76.19
30614;BME280;17381;51.690;5.270;2023-04-24T13:01:41;100823.72;;;11.42;70.02
30614;BME280;17381;51.690;5.270;2023-04-24T13:07:46;100820.06;;;11.76;68.10
30614;BME280;17381;51.690;5.270;2023-04-24T13:17:28;100821.16;;;12.77;64.12
30614;BME280;17381;51.690;5.270;2023-04-24T13:20:47;100831.16;;;12.67;64.29
30614;BME280;17381;51.690;5.270;2023-04-24T13:23:51;100841.38;;;12.25;63.82
30614;BME280;17381;51.690;5.270;2023-04-24T13:26:43;100826.19;;;11.76;65.45
30614;BME280;17381;51.690;5.270;2023-04-24T13:29:47;100780.81;;;11.10;65.53
30614;BME280;17381;51.690;5.270;2023-04-24T13:35:42;100847.72;;;10.67;67.62
30614;BME280;17381;51.690;5.270;2023-04-24T13:38:45;100851.75;;;10.48;69.68
30614;BME280;17381;51.690;5.270;2023-04-24T13:41:38;100853.28;;;10.55;68.98
30614;BME280;17381;51.690;5.270;2023-04-24T13:44:39;100853.75;;;10.71;69.42
30614;BME280;17381;51.690;5.270;2023-04-24T13:47:58;100846.19;;;10.91;70.33
30614;BME280;17381;51.690;5.270;2023-04-24T13:50:10;100848.47;;;11.05;68.67
30614;BME280;17381;51.690;5.270;2023-04-24T13:53:31;100804.91;;;10.95;68.38
30614;BME280;17381;51.690;5.270;2023-04-24T13:56:02;100838.53;;;11.46;67.60
30614;BME280;17381;51.690;5.270;2023-04-24T13:58:37;100812.00;;;11.52;66.51
30614;BME280;17381;51.690;5.270;2023-04-24T14:05:27;100845.84;;;11.94;66.90
30614;BME280;17381;51.690;5.270;2023-04-24T14:08:04;100798.16;;;11.75;66.31
30614;BME280;17381;51.690;5.270;2023-04-24T14:10:47;100831.78;;;11.95;66.03
30614;BME280;17381;51.690;5.270;2023-04-24T14:13:37;100836.28;;;11.92;66.63
30614;BME280;17381;51.690;5.270;2023-04-24T14:16:12;100793.56;;;11.54;65.91
30614;BME280;17381;51.690;5.270;2023-04-24T14:19:05;100842.94;;;11.74;65.41
30614;BME280;17381;51.690;5.270;2023-04-24T14:22:18;100838.84;;;11.65;65.42
30614;BME280;17381;51.690;5.270;2023-04-24T14:24:56;100840.63;;;11.65;65.83
30614;BME280;17381;51.690;5.270;2023-04-24T14:27:22;100840.44;;;11.69;65.08
30614;BME280;17381;51.690;5.270;2023-04-24T14:29:56;100845.25;;;11.56;63.89
30614;BME280;17381;51.690;5.270;2023-04-24T14:32:28;100836.88;;;11.42;63.49
30614;BME280;17381;51.690;5.270;2023-04-24T14:35:05;100831.38;;;11.20;65.19
30614;BME280;17381;51.690;5.270;2023-04-24T14:37:58;100862.88;;;10.92;67.05
30614;BME280;17381;51.690;5.270;2023-04-24T14:40:40;100866.00;;;10.38;69.08
30614;BME280;17381;51.690;5.270;2023-04-24T14:43:23;100859.28;;;9.87;71.35
30614;BME280;17381;51.690;5.270;2023-04-24T14:46:28;100912.91;;;9.75;73.14
30614;BME280;17381;51.690;5.270;2023-04-24T14:49:00;100894.38;;;9.43;74.44
30614;BME280;17381;51.690;5.270;2023-04-24T14:51:42;100890.97;;;9.37;75.29
30614;BME280;17381;51.690;5.270;2023-04-24T14:54:13;100885.13;;;9.23;75.86
30614;BME280;17381;51.690;5.270;2023-04-24T14:56:50;100893.88;;;9.22;76.47
30614;BME280;17381;51.690;5.270;2023-04-24T14:59:32;100904.53;;;9.14;76.64
30614;BME280;17381;51.690;5.270;2023-04-24T15:03:05;100891.44;;;9.13;77.59
30614;BME280;17381;51.690;5.270;2023-04-24T15:06:11;100899.97;;;9.24;77.98
30614;BME280;17381;51.690;5.270;2023-04-24T15:09:52;100900.75;;;9.29;78.35
30614;BME280;17381;51.690;5.270;2023-04-24T15:13:02;100884.69;;;9.45;77.63
30614;BME280;17381;51.690;5.270;2023-04-24T15:16:16;100889.47;;;10.07;78.18
30614;BME280;17381;51.690;5.270;2023-04-24T15:19:42;100887.00;;;11.06;76.27
30614;BME280;17381;51.690;5.270;2023-04-24T15:22:45;100887.53;;;11.50;73.08
30614;BME280;17381;51.690;5.270;2023-04-24T15:25:49;100875.53;;;11.40;70.45
30614;BME280;17381;51.690;5.270;2023-04-24T15:28:45;100893.13;;;11.38;70.91
30614;BME280;17381;51.690;5.270;2023-04-24T15:31:41;100882.34;;;11.47;68.57
30614;BME280;17381;51.690;5.270;2023-04-24T15:34:25;100885.47;;;11.91;67.38
30614;BME280;17381;51.690;5.270;2023-04-24T15:37:15;100896.59;;;12.29;68.00
30614;BME280;17381;51.690;5.270;2023-04-24T15:40:01;100886.16;;;12.53;68.68
30614;BME280;17381;51.690;5.270;2023-04-24T15:42:39;100879.56;;;12.39;65.44
30614;BME280;17381;51.690;5.270;2023-04-24T15:45:30;100897.72;;;12.20;63.02
30614;BME280;17381;51.690;5.270;2023-04-24T15:48:29;100898.53;;;12.22;64.17
30614;BME280;17381;51.690;5.270;2023-04-24T15:54:34;100900.84;;;12.86;61.42
30614;BME280;17381;51.690;5.270;2023-04-24T15:57:23;100884.53;;;12.75;62.35
30614;BME280;17381;51.690;5.270;2023-04-24T16:00:25;100891.56;;;12.75;61.23
30614;BME280;17381;51.690;5.270;2023-04-24T16:03:26;100898.19;;;12.86;61.44
30614;BME280;17381;51.690;5.270;2023-04-24T16:06:35;100892.53;;;12.97;60.17
30614;BME280;17381;51.690;5.270;2023-04-24T16:09:31;100887.09;;;13.02;60.24
30614;BME280;17381;51.690;5.270;2023-04-24T16:12:39;100899.97;;;13.11;60.90
30614;BME280;17381;51.690;5.270;2023-04-24T16:15:27;100888.41;;;13.15;60.22
30614;BME280;17381;51.690;5.270;2023-04-24T16:18:14;100873.00;;;13.28;58.46
30614;BME280;17381;51.690;5.270;2023-04-24T16:21:06;100882.31;;;13.38;59.84
30614;BME280;17381;51.690;5.270;2023-04-24T16:23:52;100889.88;;;13.47;60.61
30614;BME280;17381;51.690;5.270;2023-04-24T16:26:31;100883.16;;;13.62;58.98
30614;BME280;17381;51.690;5.270;2023-04-24T16:29:26;100894.38;;;13.45;58.83
30614;BME280;17381;51.690;5.270;2023-04-24T16:32:04;100901.19;;;13.27;57.80
30614;BME280;17381;51.690;5.270;2023-04-24T16:35:03;100893.63;;;12.92;58.00
30614;BME280;17381;51.690;5.270;2023-04-24T16:37:53;100893.00;;;12.58;57.78
30614;BME280;17381;51.690;5.270;2023-04-24T16:40:46;100900.09;;;12.30;59.13
30614;BME280;17381;51.690;5.270;2023-04-24T16:44:04;100910.38;;;12.09;60.75
30614;BME280;17381;51.690;5.270;2023-04-24T16:55:28;100914.78;;;11.49;59.17
30614;BME280;17381;51.690;5.270;2023-04-24T16:58:43;100917.03;;;11.30;59.50
30614;BME280;17381;51.690;5.270;2023-04-24T17:01:40;100925.34;;;11.15;59.60
30614;BME280;17381;51.690;5.270;2023-04-24T17:04:31;100926.72;;;10.97;60.34
30614;BME280;17381;51.690;5.270;2023-04-24T17:10:59;100929.03;;;10.75;61.12
30614;BME280;17381;51.690;5.270;2023-04-24T17:14:03;100936.16;;;10.70;61.17
30614;BME280;17381;51.690;5.270;2023-04-24T17:16:57;100946.03;;;10.60;62.43
30614;BME280;17381;51.690;5.270;2023-04-24T17:19:57;100949.41;;;10.65;61.54
30614;BME280;17381;51.690;5.270;2023-04-24T17:22:45;100938.94;;;10.64;61.71
30614;BME280;17381;51.690;5.270;2023-04-24T17:25:36;100927.78;;;10.54;62.35
30614;BME280;17381;51.690;5.270;2023-04-24T17:28:35;100915.50;;;10.55;61.29
30614;BME280;17381;51.690;5.270;2023-04-24T17:31:20;100942.81;;;10.49;62.04
30614;BME280;17381;51.690;5.270;2023-04-24T17:38:12;100943.66;;;10.50;63.24
30614;BME280;17381;51.690;5.270;2023-04-24T17:40:50;100908.41;;;10.21;63.45
30614;BME280;17381;51.690;5.270;2023-04-24T17:43:48;100935.19;;;10.38;64.08
30614;BME280;17381;51.690;5.270;2023-04-24T17:46:29;100936.25;;;10.30;64.89
30614;BME280;17381;51.690;5.270;2023-04-24T17:49:31;100935.28;;;10.34;64.29
30614;BME280;17381;51.690;5.270;2023-04-24T17:52:26;100937.94;;;10.32;65.10
30614;BME280;17381;51.690;5.270;2023-04-24T17:55:10;100939.00;;;10.23;64.42
30614;BME280;17381;51.690;5.270;2023-04-24T17:58:07;100939.19;;;10.14;64.75
30614;BME280;17381;51.690;5.270;2023-04-24T18:01:16;100948.94;;;10.09;65.34
30614;BME280;17381;51.690;5.270;2023-04-24T18:07:12;100945.78;;;9.93;65.74
30614;BME280;17381;51.690;5.270;2023-04-24T18:10:27;100952.03;;;9.88;65.01
30614;BME280;17381;51.690;5.270;2023-04-24T18:13:08;100955.72;;;9.79;65.07
30614;BME280;17381;51.690;5.270;2023-04-24T18:15:40;100941.94;;;9.68;64.31
30614;BME280;17381;51.690;5.270;2023-04-24T18:18:09;100957.66;;;9.71;63.57
30614;BME280;17381;51.690;5.270;2023-04-24T18:20:38;100960.44;;;9.63;62.63
30614;BME280;17381;51.690;5.270;2023-04-24T18:23:40;100958.81;;;9.56;62.86
30614;BME280;17381;51.690;5.270;2023-04-24T18:26:41;100961.59;;;9.47;62.35
30614;BME280;17381;51.690;5.270;2023-04-24T18:29:15;100965.28;;;9.36;62.05
30614;BME280;17381;51.690;5.270;2023-04-24T18:31:45;100963.69;;;9.29;62.41
30614;BME280;17381;51.690;5.270;2023-04-24T18:34:30;100967.25;;;9.25;62.49
30614;BME280;17381;51.690;5.270;2023-04-24T18:37:04;100978.69;;;9.21;62.14
30614;BME280;17381;51.690;5.270;2023-04-24T18:39:36;100953.72;;;9.00;62.94
30614;BME280;17381;51.690;5.270;2023-04-24T18:42:36;100984.06;;;9.13;62.18
30614;BME280;17381;51.690;5.270;2023-04-24T18:45:14;100936.63;;;8.78;62.20
30614;BME280;17381;51.690;5.270;2023-04-24T18:48:05;100981.72;;;8.98;63.07
30614;BME280;17381;51.690;5.270;2023-04-24T18:58:38;100981.31;;;8.70;63.93
30614;BME280;17381;51.690;5.270;2023-04-24T19:02:16;100996.16;;;8.71;64.26
30614;BME280;17381;51.690;5.270;2023-04-24T19:08:35;100993.81;;;8.52;64.73
30614;BME280;17381;51.690;5.270;2023-04-24T19:11:12;100954.06;;;8.21;65.38
30614;BME280;17381;51.690;5.270;2023-04-24T19:13:55;100971.41;;;8.30;65.66
30614;BME280;17381;51.690;5.270;2023-04-24T19:16:38;101013.94;;;8.49;65.65
30614;BME280;17381;51.690;5.270;2023-04-24T19:19:13;101018.34;;;8.45;65.50
30614;BME280;17381;51.690;5.270;2023-04-24T19:22:25;101023.59;;;8.45;65.94
30614;BME280;17381;51.690;5.270;2023-04-24T19:25:08;101023.69;;;8.39;66.43
30614;BME280;17381;51.690;5.270;2023-04-24T19:27:53;101022.91;;;8.29;66.32
30614;BME280;17381;51.690;5.270;2023-04-24T19:30:55;101022.97;;;8.25;66.63
30614;BME280;17381;51.690;5.270;2023-04-24T19:34:14;100919.13;;;7.59;67.19
30614;BME280;17381;51.690;5.270;2023-04-24T19:36:59;101034.34;;;8.24;66.92
30614;BME280;17381;51.690;5.270;2023-04-24T19:39:28;101025.69;;;8.19;67.34
30614;BME280;17381;51.690;5.270;2023-04-24T19:42:02;101039.56;;;8.24;67.39
30614;BME280;17381;51.690;5.270;2023-04-24T19:44:35;100982.44;;;7.87;67.57
30614;BME280;17381;51.690;5.270;2023-04-24T19:47:07;101043.16;;;8.17;67.87
30614;BME280;17381;51.690;5.270;2023-04-24T19:49:53;101047.56;;;8.12;67.87
30614;BME280;17381;51.690;5.270;2023-04-24T19:52:47;101037.09;;;8.12;68.26
30614;BME280;17381;51.690;5.270;2023-04-24T19:55:52;101035.47;;;8.03;68.72
30614;BME280;17381;51.690;5.270;2023-04-24T19:58:45;101042.44;;;8.02;68.34
30614;BME280;17381;51.690;5.270;2023-04-24T20:01:35;101039.00;;;7.99;68.81
30614;BME280;17381;51.690;5.270;2023-04-24T20:04:40;101024.31;;;7.87;68.85
30614;BME280;17381;51.690;5.270;2023-04-24T20:07:40;101038.19;;;7.94;69.24
30614;BME280;17381;51.690;5.270;2023-04-24T20:10:34;101039.16;;;7.86;69.06
30614;BME280;17381;51.690;5.270;2023-04-24T20:13:14;101040.00;;;7.87;69.55
30614;BME280;17381;51.690;5.270;2023-04-24T20:15:58;101052.22;;;7.88;69.50
30614;BME280;17381;51.690;5.270;2023-04-24T20:18:51;101042.69;;;7.81;69.86
30614;BME280;17381;51.690;5.270;2023-04-24T20:21:45;101027.09;;;7.73;69.71
30614;BME280;17381;51.690;5.270;2023-04-24T20:24:40;101043.59;;;7.77;69.83
30614;BME280;17381;51.690;5.270;2023-04-24T20:27:36;101046.22;;;7.80;70.00
30614;BME280;17381;51.690;5.270;2023-04-24T20:30:22;101052.34;;;7.76;70.34
30614;BME280;17381;51.690;5.270;2023-04-24T20:36:03;101046.38;;;7.61;71.38
30614;BME280;17381;51.690;5.270;2023-04-24T20:39:07;100963.22;;;7.15;70.85
30614;BME280;17381;51.690;5.270;2023-04-24T20:42:06;101044.66;;;7.60;71.03
30614;BME280;17381;51.690;5.270;2023-04-24T20:44:55;101056.03;;;7.59;71.66
30614;BME280;17381;51.690;5.270;2023-04-24T20:48:05;101054.31;;;7.57;71.44
30614;BME280;17381;51.690;5.270;2023-04-24T20:54:13;101042.19;;;7.45;72.04
30614;BME280;17381;51.690;5.270;2023-04-24T20:57:21;101055.25;;;7.50;72.65
30614;BME280;17381;51.690;5.270;2023-04-24T20:59:50;101044.81;;;7.45;72.51
30614;BME280;17381;51.690;5.270;2023-04-24T21:02:24;101045.66;;;7.49;71.97
30614;BME280;17381;51.690;5.270;2023-04-24T21:05:04;101051.81;;;7.45;72.53
30614;BME280;17381;51.690;5.270;2023-04-24T21:07:49;101051.81;;;7.43;72.67
30614;BME280;17381;51.690;5.270;2023-04-24T21:10:41;101051.81;;;7.43;73.11
30614;BME280;17381;51.690;5.270;2023-04-24T21:13:44;101055.31;;;7.42;72.80
30614;BME280;17381;51.690;5.270;2023-04-24T21:16:31;101049.22;;;7.40;72.80
30614;BME280;17381;51.690;5.270;2023-04-24T21:19:10;101028.44;;;7.26;72.99
30614;BME280;17381;51.690;5.270;2023-04-24T21:21:37;101044.94;;;7.33;73.48
30614;BME280;17381;51.690;5.270;2023-04-24T21:24:08;101028.44;;;7.26;73.16
30614;BME280;17381;51.690;5.270;2023-04-24T21:27:16;101042.31;;;7.34;72.87
30614;BME280;17381;51.690;5.270;2023-04-24T21:30:01;101042.34;;;7.30;73.21
30614;BME280;17381;51.690;5.270;2023-04-24T21:32:54;101039.75;;;7.27;73.42
30614;BME280;17381;51.690;5.270;2023-04-24T21:35:57;101048.50;;;7.26;72.99
30614;BME280;17381;51.690;5.270;2023-04-24T21:38:45;101038.06;;;7.21;73.76
30614;BME280;17381;51.690;5.270;2023-04-24T21:41:31;101031.16;;;7.15;73.64
30614;BME280;17381;51.690;5.270;2023-04-24T21:44:23;101029.38;;;7.19;73.40
30614;BME280;17381;51.690;5.270;2023-04-24T21:46:55;101012.94;;;7.06;73.85
30614;BME280;17381;51.690;5.270;2023-04-24T21:49:34;101027.72;;;7.10;73.80
30614;BME280;17381;51.690;5.270;2023-04-24T21:52:10;101017.31;;;7.01;74.03
30614;BME280;17381;51.690;5.270;2023-04-24T21:54:53;101026.03;;;7.03;74.02
30614;BME280;17381;51.690;5.270;2023-04-24T21:57:27;101013.81;;;7.02;74.57
30614;BME280;17381;51.690;5.270;2023-04-24T22:00:10;101011.28;;;6.96;74.45
30614;BME280;17381;51.690;5.270;2023-04-24T22:02:55;101038.25;;;7.03;74.71
30614;BME280;17381;51.690;5.270;2023-04-24T22:06:00;101046.97;;;6.98;74.59
30614;BME280;17381;51.690;5.270;2023-04-24T22:08:41;101038.38;;;6.84;74.52
30614;BME280;17381;51.690;5.270;2023-04-24T22:11:31;101045.31;;;6.84;74.95
30614;BME280;17381;51.690;5.270;2023-04-24T22:14:15;101067.16;;;6.80;74.84
30614;BME280;17381;51.690;5.270;2023-04-24T22:16:51;101064.56;;;6.76;74.94
30614;BME280;17381;51.690;5.270;2023-04-24T22:19:24;101062.88;;;6.66;74.79
30614;BME280;17381;51.690;5.270;2023-04-24T22:22:05;101065.50;;;6.62;75.20
30614;BME280;17381;51.690;5.270;2023-04-24T22:24:36;101047.25;;;6.57;75.30
30614;BME280;17381;51.690;5.270;2023-04-24T22:27:08;101062.00;;;6.69;75.72
30614;BME280;17381;51.690;5.270;2023-04-24T22:29:55;101055.06;;;6.60;74.96
30614;BME280;17381;51.690;5.270;2023-04-24T22:32:46;101062.88;;;6.63;75.34
30614;BME280;17381;51.690;5.270;2023-04-24T22:36:03;101022.16;;;6.38;75.20
30614;BME280;17381;51.690;5.270;2023-04-24T22:38:53;101075.97;;;6.60;75.65
30614;BME280;17381;51.690;5.270;2023-04-24T22:42:14;101067.25;;;6.61;75.64
30614;BME280;17381;51.690;5.270;2023-04-24T22:45:46;101059.44;;;6.55;75.34
30614;BME280;17381;51.690;5.270;2023-04-24T22:53:35;101062.06;;;6.52;76.31
30614;BME280;17381;51.690;5.270;2023-04-24T22:56:21;101066.44;;;6.51;76.49
30614;BME280;17381;51.690;5.270;2023-04-24T22:59:35;101044.72;;;6.42;76.62
30614;BME280;17381;51.690;5.270;2023-04-24T23:02:36;101054.28;;;6.49;76.78
30614;BME280;17381;51.690;5.270;2023-04-24T23:48:15;101060.56;;;6.05;77.81
